sensor_id;sensor_type;location;lat;lon;timestamp;temperature;humidity
11221;DHT22;8517;53.546;10.104;2023-11-21T00:01:57;11.80;99.90
11221;DHT22;8517;53.546;10.104;2023-11-21T00:04:24;11.80;99.90
11221;DHT22;8517;53.546;10.104;2023-11-21T00:06:54;11.70;99.90
11221;DHT22;8517;53.546;10.104;2023-11-21T00:09:21;11.70;99.90
11221;DHT22;8517;53.546;10.104;2023-11-21T00:11:48;11.70;99.90
11221;DHT22;8517;53.546;10.104;2023-11-21T00:14:16;11.60;99.90
11221;DHT22;8517;53.546;10.104;2023-11-21T00:16:43;11.50;99.90
11221;DHT22;8517;53.546;10.104;2023-11-21T00:19:10;11.50;99.90
11221;DHT22;8517;53.546;10.104;2023-11-21T00:21:36;11.40;99.90
11221;DHT22;8517;53.546;10.104;2023-11-21T00:24:03;11.40;99.90
11221;DHT22;8517;53.546;10.104;2023-11-21T00:26:30;11.30;99.90
11221;DHT22;8517;53.546;10.104;2023-11-21T00:29:02;11.20;99.90
11221;DHT22;8517;53.546;10.104;2023-11-21T00:31:30;11.20;99.90
11221;DHT22;8517;53.546;10.104;2023-11-21T00:33:57;11.20;99.90
11221;DHT22;8517;53.546;10.104;2023-11-21T00:36:24;11.10;99.90
11221;DHT22;8517;53.546;10.104;2023-11-21T00:38:51;11.10;99.90
11221;DHT22;8517;53.546;10.104;2023-11-21T00:41:18;11.10;99.90
11221;DHT22;8517;53.546;10.104;2023-11-21T00:43:45;11.10;99.90
11221;DHT22;8517;53.546;10.104;2023-11-21T00:46:11;11.00;99.90
11221;DHT22;8517;53.546;10.104;2023-11-21T00:48:40;11.00;99.90
11221;DHT22;8517;53.546;10.104;2023-11-21T00:51:07;11.00;99.90
11221;DHT22;8517;53.546;10.104;2023-11-21T00:53:34;10.90;99.90
11221;DHT22;8517;53.546;10.104;2023-11-21T00:56:01;10.90;99.90
11221;DHT22;8517;53.546;10.104;2023-11-21T00:58:28;10.80;99.90
11221;DHT22;8517;53.546;10.104;2023-11-21T01:00:55;10.80;99.90
11221;DHT22;8517;53.546;10.104;2023-11-21T01:03:23;10.70;99.90
11221;DHT22;8517;53.546;10.104;2023-11-21T01:05:51;10.60;99.90
11221;DHT22;8517;53.546;10.104;2023-11-21T01:08:18;10.60;99.90
11221;DHT22;8517;53.546;10.104;2023-11-21T01:10:45;10.50;99.90
11221;DHT22;8517;53.546;10.104;2023-11-21T01:13:12;10.60;99.90
11221;DHT22;8517;53.546;10.104;2023-11-21T01:15:40;10.50;99.90
11221;DHT22;8517;53.546;10.104;2023-11-21T01:18:07;10.50;99.90
11221;DHT22;8517;53.546;10.104;2023-11-21T01:20:34;10.50;99.90
11221;DHT22;8517;53.546;10.104;2023-11-21T01:23:02;10.40;99.90
11221;DHT22;8517;53.546;10.104;2023-11-21T01:25:30;10.40;99.90
11221;DHT22;8517;53.546;10.104;2023-11-21T01:27:57;10.30;99.90
11221;DHT22;8517;53.546;10.104;2023-11-21T01:30:23;10.30;99.90
11221;DHT22;8517;53.546;10.104;2023-11-21T01:32:51;10.20;99.90
11221;DHT22;8517;53.546;10.104;2023-11-21T01:35:17;10.30;99.90
11221;DHT22;8517;53.546;10.104;2023-11-21T01:37:44;10.20;99.90
11221;DHT22;8517;53.546;10.104;2023-11-21T01:40:12;10.10;99.90
11221;DHT22;8517;53.546;10.104;2023-11-21T01:42:39;10.10;99.90
11221;DHT22;8517;53.546;10.104;2023-11-21T01:45:07;10.10;99.90
11221;DHT22;8517;53.546;10.104;2023-11-21T01:47:35;10.10;99.90
11221;DHT22;8517;53.546;10.104;2023-11-21T01:50:03;10.00;99.90
11221;DHT22;8517;53.546;10.104;2023-11-21T01:52:31;10.00;99.90
11221;DHT22;8517;53.546;10.104;2023-11-21T01:54:58;10.00;99.90
11221;DHT22;8517;53.546;10.104;2023-11-21T01:57:27;10.00;99.90
11221;DHT22;8517;53.546;10.104;2023-11-21T01:59:56;9.90;99.90
11221;DHT22;8517;53.546;10.104;2023-11-21T02:02:25;10.00;99.90
11221;DHT22;8517;53.546;10.104;2023-11-21T02:04:52;10.00;99.90
11221;DHT22;8517;53.546;10.104;2023-11-21T02:07:18;9.90;99.90
11221;DHT22;8517;53.546;10.104;2023-11-21T02:09:46;9.90;99.90
11221;DHT22;8517;53.546;10.104;2023-11-21T02:12:13;9.90;99.90
11221;DHT22;8517;53.546;10.104;2023-11-21T02:14:42;9.90;99.90
11221;DHT22;8517;53.546;10.104;2023-11-21T02:17:10;9.90;99.90
11221;DHT22;8517;53.546;10.104;2023-11-21T02:19:38;9.90;99.90
11221;DHT22;8517;53.546;10.104;2023-11-21T02:22:06;9.90;99.90
11221;DHT22;8517;53.546;10.104;2023-11-21T02:24:34;9.80;99.90
11221;DHT22;8517;53.546;10.104;2023-11-21T02:27:02;9.80;99.90
11221;DHT22;8517;53.546;10.104;2023-11-21T02:29:29;9.80;99.90
11221;DHT22;8517;53.546;10.104;2023-11-21T02:31:56;9.80;99.90
11221;DHT22;8517;53.546;10.104;2023-11-21T02:34:23;9.80;99.90
11221;DHT22;8517;53.546;10.104;2023-11-21T02:36:50;9.70;99.90
11221;DHT22;8517;53.546;10.104;2023-11-21T02:39:17;9.70;99.90
11221;DHT22;8517;53.546;10.104;2023-11-21T02:41:48;9.80;99.90
11221;DHT22;8517;53.546;10.104;2023-11-21T02:44:15;9.70;99.90
11221;DHT22;8517;53.546;10.104;2023-11-21T02:46:42;9.70;99.90
11221;DHT22;8517;53.546;10.104;2023-11-21T02:49:09;9.70;99.90
11221;DHT22;8517;53.546;10.104;2023-11-21T02:51:37;9.70;99.90
11221;DHT22;8517;53.546;10.104;2023-11-21T02:54:05;9.70;99.90
11221;DHT22;8517;53.546;10.104;2023-11-21T02:56:33;9.60;99.90
11221;DHT22;8517;53.546;10.104;2023-11-21T02:59:01;9.60;99.90
11221;DHT22;8517;53.546;10.104;2023-11-21T03:01:29;9.60;99.90
11221;DHT22;8517;53.546;10.104;2023-11-21T03:03:55;9.60;99.90
11221;DHT22;8517;53.546;10.104;2023-11-21T03:06:22;9.60;99.90
11221;DHT22;8517;53.546;10.104;2023-11-21T03:08:50;9.60;99.90
11221;DHT22;8517;53.546;10.104;2023-11-21T03:11:17;9.60;99.90
11221;DHT22;8517;53.546;10.104;2023-11-21T03:13:44;9.60;99.90
11221;DHT22;8517;53.546;10.104;2023-11-21T03:16:14;9.60;99.90
11221;DHT22;8517;53.546;10.104;2023-11-21T03:18:41;9.60;99.90
11221;DHT22;8517;53.546;10.104;2023-11-21T03:21:08;9.60;99.90
11221;DHT22;8517;53.546;10.104;2023-11-21T03:23:35;9.60;99.90
11221;DHT22;8517;53.546;10.104;2023-11-21T03:26:02;9.60;99.90
11221;DHT22;8517;53.546;10.104;2023-11-21T03:28:29;9.60;99.90
11221;DHT22;8517;53.546;10.104;2023-11-21T03:30:56;9.60;99.90
11221;DHT22;8517;53.546;10.104;2023-11-21T03:33:24;9.60;99.90
11221;DHT22;8517;53.546;10.104;2023-11-21T03:35:51;9.60;99.90
11221;DHT22;8517;53.546;10.104;2023-11-21T03:38:19;9.60;99.90
11221;DHT22;8517;53.546;10.104;2023-11-21T03:40:46;9.60;99.90
11221;DHT22;8517;53.546;10.104;2023-11-21T03:43:13;9.60;99.90
11221;DHT22;8517;53.546;10.104;2023-11-21T03:45:40;9.60;99.90
11221;DHT22;8517;53.546;10.104;2023-11-21T03:48:07;9.60;99.90
11221;DHT22;8517;53.546;10.104;2023-11-21T03:50:35;9.60;99.90
11221;DHT22;8517;53.546;10.104;2023-11-21T03:53:02;9.60;99.90
11221;DHT22;8517;53.546;10.104;2023-11-21T03:55:29;9.50;99.90
11221;DHT22;8517;53.546;10.104;2023-11-21T03:57:57;9.60;99.90
11221;DHT22;8517;53.546;10.104;2023-11-21T04:00:24;9.50;99.90
11221;DHT22;8517;53.546;10.104;2023-11-21T04:02:52;9.50;99.90
11221;DHT22;8517;53.546;10.104;2023-11-21T04:05:20;9.50;99.90
11221;DHT22;8517;53.546;10.104;2023-11-21T04:07:48;9.50;99.90
11221;DHT22;8517;53.546;10.104;2023-11-21T04:10:15;9.50;99.90
11221;DHT22;8517;53.546;10.104;2023-11-21T04:12:42;9.50;99.90
11221;DHT22;8517;53.546;10.104;2023-11-21T04:15:09;9.50;99.90
11221;DHT22;8517;53.546;10.104;2023-11-21T04:17:36;9.50;99.90
11221;DHT22;8517;53.546;10.104;2023-11-21T04:20:04;9.60;99.90
11221;DHT22;8517;53.546;10.104;2023-11-21T04:22:34;9.60;99.90
11221;DHT22;8517;53.546;10.104;2023-11-21T04:25:02;9.60;99.90
11221;DHT22;8517;53.546;10.104;2023-11-21T04:27:29;9.60;99.90
11221;DHT22;8517;53.546;10.104;2023-11-21T04:29:56;9.60;99.90
11221;DHT22;8517;53.546;10.104;2023-11-21T04:32:22;9.60;99.90
11221;DHT22;8517;53.546;10.104;2023-11-21T04:34:49;9.60;99.90
11221;DHT22;8517;53.546;10.104;2023-11-21T04:37:16;9.70;99.90
11221;DHT22;8517;53.546;10.104;2023-11-21T04:39:43;9.70;99.90
11221;DHT22;8517;53.546;10.104;2023-11-21T04:42:11;9.70;99.90
11221;DHT22;8517;53.546;10.104;2023-11-21T04:44:38;9.70;99.90
11221;DHT22;8517;53.546;10.104;2023-11-21T04:47:06;9.70;99.90
11221;DHT22;8517;53.546;10.104;2023-11-21T04:49:33;9.70;99.90
11221;DHT22;8517;53.546;10.104;2023-11-21T04:52:00;9.70;99.90
11221;DHT22;8517;53.546;10.104;2023-11-21T04:54:27;9.70;99.90
11221;DHT22;8517;53.546;10.104;2023-11-21T04:56:54;9.80;99.90
11221;DHT22;8517;53.546;10.104;2023-11-21T04:59:22;9.80;99.90
11221;DHT22;8517;53.546;10.104;2023-11-21T05:01:50;9.80;99.90
11221;DHT22;8517;53.546;10.104;2023-11-21T05:04:16;9.80;99.90
11221;DHT22;8517;53.546;10.104;2023-11-21T05:06:43;9.80;99.90
11221;DHT22;8517;53.546;10.104;2023-11-21T05:09:10;9.80;99.90
11221;DHT22;8517;53.546;10.104;2023-11-21T05:11:38;9.80;99.90
11221;DHT22;8517;53.546;10.104;2023-11-21T05:14:06;9.70;99.90
11221;DHT22;8517;53.546;10.104;2023-11-21T05:16:35;9.80;99.90
11221;DHT22;8517;53.546;10.104;2023-11-21T05:19:03;9.70;99.90
11221;DHT22;8517;53.546;10.104;2023-11-21T05:21:31;9.80;99.90
11221;DHT22;8517;53.546;10.104;2023-11-21T05:23:58;9.80;99.90
11221;DHT22;8517;53.546;10.104;2023-11-21T05:26:25;9.80;99.90
11221;DHT22;8517;53.546;10.104;2023-11-21T05:28:52;9.80;99.90
11221;DHT22;8517;53.546;10.104;2023-11-21T05:31:19;9.80;99.90
11221;DHT22;8517;53.546;10.104;2023-11-21T05:33:47;9.80;99.90
11221;DHT22;8517;53.546;10.104;2023-11-21T05:36:14;9.70;99.90
11221;DHT22;8517;53.546;10.104;2023-11-21T05:38:40;9.80;99.90
11221;DHT22;8517;53.546;10.104;2023-11-21T05:41:08;9.80;99.90
11221;DHT22;8517;53.546;10.104;2023-11-21T05:43:36;9.80;99.90
11221;DHT22;8517;53.546;10.104;2023-11-21T05:46:03;9.70;99.90
11221;DHT22;8517;53.546;10.104;2023-11-21T05:48:31;9.70;99.90
11221;DHT22;8517;53.546;10.104;2023-11-21T05:50:59;9.70;99.90
11221;DHT22;8517;53.546;10.104;2023-11-21T05:53:27;9.80;99.90
11221;DHT22;8517;53.546;10.104;2023-11-21T05:55:54;9.70;99.90
11221;DHT22;8517;53.546;10.104;2023-11-21T05:58:21;9.70;99.90
11221;DHT22;8517;53.546;10.104;2023-11-21T06:00:48;9.70;99.90
11221;DHT22;8517;53.546;10.104;2023-11-21T06:03:15;9.70;99.90
11221;DHT22;8517;53.546;10.104;2023-11-21T06:05:42;9.70;99.90
11221;DHT22;8517;53.546;10.104;2023-11-21T06:08:11;9.70;99.90
11221;DHT22;8517;53.546;10.104;2023-11-21T06:10:38;9.70;99.90
11221;DHT22;8517;53.546;10.104;2023-11-21T06:13:04;9.60;99.90
11221;DHT22;8517;53.546;10.104;2023-11-21T06:15:33;9.60;99.90
11221;DHT22;8517;53.546;10.104;2023-11-21T06:18:00;9.60;99.90
11221;DHT22;8517;53.546;10.104;2023-11-21T06:20:27;9.70;99.90
11221;DHT22;8517;53.546;10.104;2023-11-21T06:22:54;9.60;99.90
11221;DHT22;8517;53.546;10.104;2023-11-21T06:25:22;9.70;99.90
11221;DHT22;8517;53.546;10.104;2023-11-21T06:27:50;9.70;99.90
11221;DHT22;8517;53.546;10.104;2023-11-21T06:30:19;9.70;99.90
11221;DHT22;8517;53.546;10.104;2023-11-21T06:32:47;9.70;99.90
11221;DHT22;8517;53.546;10.104;2023-11-21T06:35:14;9.70;99.90
11221;DHT22;8517;53.546;10.104;2023-11-21T06:37:41;9.70;99.90
11221;DHT22;8517;53.546;10.104;2023-11-21T06:40:13;9.70;99.90
11221;DHT22;8517;53.546;10.104;2023-11-21T06:42:42;9.70;99.90
11221;DHT22;8517;53.546;10.104;2023-11-21T06:45:10;9.70;99.90
11221;DHT22;8517;53.546;10.104;2023-11-21T06:47:37;9.70;99.90
11221;DHT22;8517;53.546;10.104;2023-11-21T06:50:05;9.70;99.90
11221;DHT22;8517;53.546;10.104;2023-11-21T06:52:32;9.70;99.90
11221;DHT22;8517;53.546;10.104;2023-11-21T06:54:59;9.70;99.90
11221;DHT22;8517;53.546;10.104;2023-11-21T06:57:26;9.70;99.90
11221;DHT22;8517;53.546;10.104;2023-11-21T06:59:54;9.70;99.90
11221;DHT22;8517;53.546;10.104;2023-11-21T07:02:25;9.70;99.90
11221;DHT22;8517;53.546;10.104;2023-11-21T07:04:53;9.70;99.90
11221;DHT22;8517;53.546;10.104;2023-11-21T07:07:20;9.70;99.90
11221;DHT22;8517;53.546;10.104;2023-11-21T07:09:47;9.70;99.90
11221;DHT22;8517;53.546;10.104;2023-11-21T07:12:17;9.70;99.90
11221;DHT22;8517;53.546;10.104;2023-11-21T07:14:45;9.80;99.90
11221;DHT22;8517;53.546;10.104;2023-11-21T07:17:14;9.80;99.90
11221;DHT22;8517;53.546;10.104;2023-11-21T07:19:42;9.70;99.90
11221;DHT22;8517;53.546;10.104;2023-11-21T07:22:09;9.80;99.90
11221;DHT22;8517;53.546;10.104;2023-11-21T07:24:37;9.80;99.90
11221;DHT22;8517;53.546;10.104;2023-11-21T07:27:03;9.80;99.90
11221;DHT22;8517;53.546;10.104;2023-11-21T07:29:30;9.80;99.90
11221;DHT22;8517;53.546;10.104;2023-11-21T07:31:58;9.80;99.90
11221;DHT22;8517;53.546;10.104;2023-11-21T07:34:27;9.80;99.90
11221;DHT22;8517;53.546;10.104;2023-11-21T07:36:54;9.80;99.90
11221;DHT22;8517;53.546;10.104;2023-11-21T07:39:21;9.80;99.90
11221;DHT22;8517;53.546;10.104;2023-11-21T07:41:47;9.80;99.90
11221;DHT22;8517;53.546;10.104;2023-11-21T07:44:15;9.80;99.90
11221;DHT22;8517;53.546;10.104;2023-11-21T07:46:43;9.80;99.90
11221;DHT22;8517;53.546;10.104;2023-11-21T07:49:10;9.80;99.90
11221;DHT22;8517;53.546;10.104;2023-11-21T07:51:39;9.80;99.90
11221;DHT22;8517;53.546;10.104;2023-11-21T07:54:06;9.80;99.90
11221;DHT22;8517;53.546;10.104;2023-11-21T07:56:50;9.90;99.90
11221;DHT22;8517;53.546;10.104;2023-11-21T07:59:17;9.80;99.90
11221;DHT22;8517;53.546;10.104;2023-11-21T08:01:44;9.80;99.90
11221;DHT22;8517;53.546;10.104;2023-11-21T08:04:11;9.80;99.90
11221;DHT22;8517;53.546;10.104;2023-11-21T08:06:39;9.90;99.90
11221;DHT22;8517;53.546;10.104;2023-11-21T08:09:10;9.80;99.90
11221;DHT22;8517;53.546;10.104;2023-11-21T08:11:37;9.90;99.90
11221;DHT22;8517;53.546;10.104;2023-11-21T08:14:05;9.90;99.90
11221;DHT22;8517;53.546;10.104;2023-11-21T08:16:34;9.90;99.90
11221;DHT22;8517;53.546;10.104;2023-11-21T08:19:02;9.90;99.90
11221;DHT22;8517;53.546;10.104;2023-11-21T08:21:29;9.90;99.90
11221;DHT22;8517;53.546;10.104;2023-11-21T08:23:58;9.90;99.90
11221;DHT22;8517;53.546;10.104;2023-11-21T08:26:26;10.00;99.90
11221;DHT22;8517;53.546;10.104;2023-11-21T08:28:53;10.00;99.90
11221;DHT22;8517;53.546;10.104;2023-11-21T08:31:26;10.00;99.90
11221;DHT22;8517;53.546;10.104;2023-11-21T08:33:53;10.10;99.90
11221;DHT22;8517;53.546;10.104;2023-11-21T08:36:20;10.10;99.90
11221;DHT22;8517;53.546;10.104;2023-11-21T08:38:48;10.10;99.90
11221;DHT22;8517;53.546;10.104;2023-11-21T08:41:16;10.20;99.90
11221;DHT22;8517;53.546;10.104;2023-11-21T08:43:47;10.20;99.90
11221;DHT22;8517;53.546;10.104;2023-11-21T08:46:14;10.20;99.90
11221;DHT22;8517;53.546;10.104;2023-11-21T08:48:42;10.20;99.90
11221;DHT22;8517;53.546;10.104;2023-11-21T08:51:11;10.30;99.90
11221;DHT22;8517;53.546;10.104;2023-11-21T08:53:38;10.20;99.90
11221;DHT22;8517;53.546;10.104;2023-11-21T08:56:06;10.30;99.90
11221;DHT22;8517;53.546;10.104;2023-11-21T08:58:39;10.20;99.90
11221;DHT22;8517;53.546;10.104;2023-11-21T09:01:08;10.20;99.90
11221;DHT22;8517;53.546;10.104;2023-11-21T09:03:35;10.20;99.90
11221;DHT22;8517;53.546;10.104;2023-11-21T09:06:02;10.20;99.90
11221;DHT22;8517;53.546;10.104;2023-11-21T09:08:29;10.20;99.90
11221;DHT22;8517;53.546;10.104;2023-11-21T09:10:56;10.20;99.90
11221;DHT22;8517;53.546;10.104;2023-11-21T09:13:23;10.20;99.90
11221;DHT22;8517;53.546;10.104;2023-11-21T09:15:52;10.20;99.90
11221;DHT22;8517;53.546;10.104;2023-11-21T09:18:19;10.20;99.90
11221;DHT22;8517;53.546;10.104;2023-11-21T09:20:45;10.20;99.90
11221;DHT22;8517;53.546;10.104;2023-11-21T09:23:12;10.20;99.90
11221;DHT22;8517;53.546;10.104;2023-11-21T09:25:41;10.20;99.90
11221;DHT22;8517;53.546;10.104;2023-11-21T09:28:11;10.30;99.90
11221;DHT22;8517;53.546;10.104;2023-11-21T09:30:38;10.30;99.90
11221;DHT22;8517;53.546;10.104;2023-11-21T09:33:10;10.30;99.90
11221;DHT22;8517;53.546;10.104;2023-11-21T09:35:37;10.40;99.90
11221;DHT22;8517;53.546;10.104;2023-11-21T09:38:09;10.40;99.90
11221;DHT22;8517;53.546;10.104;2023-11-21T09:40:39;10.40;99.90
11221;DHT22;8517;53.546;10.104;2023-11-21T09:43:08;10.40;99.90
11221;DHT22;8517;53.546;10.104;2023-11-21T09:45:45;10.40;99.90
11221;DHT22;8517;53.546;10.104;2023-11-21T09:48:19;10.40;99.90
11221;DHT22;8517;53.546;10.104;2023-11-21T09:50:47;10.40;99.90
11221;DHT22;8517;53.546;10.104;2023-11-21T09:53:18;10.40;99.90
11221;DHT22;8517;53.546;10.104;2023-11-21T09:55:47;10.50;99.90
11221;DHT22;8517;53.546;10.104;2023-11-21T09:58:17;10.50;99.90
11221;DHT22;8517;53.546;10.104;2023-11-21T10:00:49;10.50;99.90
11221;DHT22;8517;53.546;10.104;2023-11-21T10:03:22;10.50;99.90
11221;DHT22;8517;53.546;10.104;2023-11-21T10:05:51;10.50;99.90
11221;DHT22;8517;53.546;10.104;2023-11-21T10:08:23;10.60;99.90
11221;DHT22;8517;53.546;10.104;2023-11-21T10:10:54;10.60;99.90
11221;DHT22;8517;53.546;10.104;2023-11-21T10:13:22;10.60;99.90
11221;DHT22;8517;53.546;10.104;2023-11-21T10:15:51;10.70;99.90
11221;DHT22;8517;53.546;10.104;2023-11-21T10:18:19;10.70;99.90
11221;DHT22;8517;53.546;10.104;2023-11-21T10:20:49;10.70;99.90
11221;DHT22;8517;53.546;10.104;2023-11-21T10:23:18;10.70;99.90
11221;DHT22;8517;53.546;10.104;2023-11-21T10:25:59;10.80;99.90
11221;DHT22;8517;53.546;10.104;2023-11-21T10:28:28;10.80;99.90
11221;DHT22;8517;53.546;10.104;2023-11-21T10:30:56;10.80;99.90
11221;DHT22;8517;53.546;10.104;2023-11-21T10:33:57;10.80;99.90
11221;DHT22;8517;53.546;10.104;2023-11-21T10:36:37;10.90;99.90
11221;DHT22;8517;53.546;10.104;2023-11-21T10:39:04;10.90;99.90
11221;DHT22;8517;53.546;10.104;2023-11-21T10:41:33;10.90;99.90
11221;DHT22;8517;53.546;10.104;2023-11-21T10:44:01;11.00;99.90
11221;DHT22;8517;53.546;10.104;2023-11-21T10:46:41;11.00;99.90
11221;DHT22;8517;53.546;10.104;2023-11-21T10:49:10;11.00;99.90
11221;DHT22;8517;53.546;10.104;2023-11-21T10:51:43;11.00;99.90
11221;DHT22;8517;53.546;10.104;2023-11-21T10:54:10;11.00;99.90
11221;DHT22;8517;53.546;10.104;2023-11-21T10:56:39;11.00;99.90
11221;DHT22;8517;53.546;10.104;2023-11-21T10:59:10;11.00;99.90
11221;DHT22;8517;53.546;10.104;2023-11-21T11:02:07;11.00;99.90
11221;DHT22;8517;53.546;10.104;2023-11-21T11:05:02;11.00;99.90
11221;DHT22;8517;53.546;10.104;2023-11-21T11:07:34;11.10;99.90
11221;DHT22;8517;53.546;10.104;2023-11-21T11:10:02;11.00;99.90
11221;DHT22;8517;53.546;10.104;2023-11-21T11:13:48;11.10;99.90
11221;DHT22;8517;53.546;10.104;2023-11-21T11:19:20;11.00;99.90
11221;DHT22;8517;53.546;10.104;2023-11-21T11:21:53;11.00;99.90
11221;DHT22;8517;53.546;10.104;2023-11-21T11:25:10;10.90;99.90
11221;DHT22;8517;53.546;10.104;2023-11-21T11:27:48;10.90;99.90
11221;DHT22;8517;53.546;10.104;2023-11-21T11:30:29;10.90;99.90
11221;DHT22;8517;53.546;10.104;2023-11-21T11:33:07;10.90;99.90
11221;DHT22;8517;53.546;10.104;2023-11-21T11:35:42;10.90;99.90
11221;DHT22;8517;53.546;10.104;2023-11-21T11:38:20;10.90;99.90
11221;DHT22;8517;53.546;10.104;2023-11-21T11:41:01;10.90;99.90
11221;DHT22;8517;53.546;10.104;2023-11-21T11:43:31;10.90;99.90
11221;DHT22;8517;53.546;10.104;2023-11-21T11:46:10;11.00;99.90
11221;DHT22;8517;53.546;10.104;2023-11-21T11:48:39;11.00;99.90
11221;DHT22;8517;53.546;10.104;2023-11-21T11:51:09;11.10;99.90
11221;DHT22;8517;53.546;10.104;2023-11-21T11:53:39;11.10;99.90
11221;DHT22;8517;53.546;10.104;2023-11-21T11:56:28;11.10;99.90
11221;DHT22;8517;53.546;10.104;2023-11-21T11:59:01;11.10;99.90
11221;DHT22;8517;53.546;10.104;2023-11-21T12:01:34;11.10;99.90
11221;DHT22;8517;53.546;10.104;2023-11-21T12:04:28;11.00;99.90
11221;DHT22;8517;53.546;10.104;2023-11-21T12:07:00;11.00;99.90
11221;DHT22;8517;53.546;10.104;2023-11-21T12:09:52;11.00;99.90
11221;DHT22;8517;53.546;10.104;2023-11-21T12:15:50;11.00;99.90
11221;DHT22;8517;53.546;10.104;2023-11-21T12:18:20;11.10;99.90
11221;DHT22;8517;53.546;10.104;2023-11-21T12:21:44;11.10;99.90
11221;DHT22;8517;53.546;10.104;2023-11-21T12:23:54;11.10;99.90
11221;DHT22;8517;53.546;10.104;2023-11-21T12:29:45;11.00;99.90
11221;DHT22;8517;53.546;10.104;2023-11-21T12:32:14;11.00;99.90
11221;DHT22;8517;53.546;10.104;2023-11-21T12:34:44;11.00;99.90
11221;DHT22;8517;53.546;10.104;2023-11-21T12:37:26;11.00;99.90
11221;DHT22;8517;53.546;10.104;2023-11-21T12:39:53;10.90;99.90
11221;DHT22;8517;53.546;10.104;2023-11-21T12:42:23;10.90;99.90
11221;DHT22;8517;53.546;10.104;2023-11-21T12:45:07;10.90;99.90
11221;DHT22;8517;53.546;10.104;2023-11-21T12:47:43;10.80;99.90
11221;DHT22;8517;53.546;10.104;2023-11-21T12:50:10;10.70;99.90
11221;DHT22;8517;53.546;10.104;2023-11-21T12:52:41;10.70;99.90
11221;DHT22;8517;53.546;10.104;2023-11-21T12:55:09;10.60;99.90
11221;DHT22;8517;53.546;10.104;2023-11-21T12:57:41;10.60;99.90
11221;DHT22;8517;53.546;10.104;2023-11-21T13:00:13;10.60;99.90
11221;DHT22;8517;53.546;10.104;2023-11-21T13:02:54;10.60;99.90
11221;DHT22;8517;53.546;10.104;2023-11-21T13:05:25;10.50;99.90
11221;DHT22;8517;53.546;10.104;2023-11-21T13:07:53;10.50;99.90
11221;DHT22;8517;53.546;10.104;2023-11-21T13:10:25;10.50;99.90
11221;DHT22;8517;53.546;10.104;2023-11-21T13:12:55;10.50;99.90
11221;DHT22;8517;53.546;10.104;2023-11-21T13:15:27;10.50;99.90
11221;DHT22;8517;53.546;10.104;2023-11-21T13:17:58;10.40;99.90
11221;DHT22;8517;53.546;10.104;2023-11-21T13:20:25;10.40;99.90
11221;DHT22;8517;53.546;10.104;2023-11-21T13:22:54;10.30;99.90
11221;DHT22;8517;53.546;10.104;2023-11-21T13:25:23;10.30;99.90
11221;DHT22;8517;53.546;10.104;2023-11-21T13:28:02;10.30;99.90
11221;DHT22;8517;53.546;10.104;2023-11-21T13:30:49;10.30;99.90
11221;DHT22;8517;53.546;10.104;2023-11-21T13:33:25;10.30;99.90
11221;DHT22;8517;53.546;10.104;2023-11-21T13:35:53;10.30;99.90
11221;DHT22;8517;53.546;10.104;2023-11-21T13:38:22;10.30;99.90
11221;DHT22;8517;53.546;10.104;2023-11-21T13:40:50;10.20;99.90
11221;DHT22;8517;53.546;10.104;2023-11-21T13:43:20;10.20;99.90
11221;DHT22;8517;53.546;10.104;2023-11-21T13:45:48;10.30;99.90
11221;DHT22;8517;53.546;10.104;2023-11-21T13:48:18;10.30;99.90
11221;DHT22;8517;53.546;10.104;2023-11-21T13:51:06;10.20;99.90
11221;DHT22;8517;53.546;10.104;2023-11-21T14:07:21;10.20;99.90
11221;DHT22;8517;53.546;10.104;2023-11-21T14:10:14;10.20;99.90
11221;DHT22;8517;53.546;10.104;2023-11-21T14:13:24;10.20;99.90
11221;DHT22;8517;53.546;10.104;2023-11-21T14:15:55;10.20;99.90
11221;DHT22;8517;53.546;10.104;2023-11-21T14:18:33;10.10;99.90
11221;DHT22;8517;53.546;10.104;2023-11-21T14:21:04;10.10;99.90
11221;DHT22;8517;53.546;10.104;2023-11-21T14:23:52;10.10;99.90
11221;DHT22;8517;53.546;10.104;2023-11-21T14:30:09;10.00;99.90
11221;DHT22;8517;53.546;10.104;2023-11-21T14:32:41;10.00;99.90
11221;DHT22;8517;53.546;10.104;2023-11-21T14:35:14;10.00;99.90
11221;DHT22;8517;53.546;10.104;2023-11-21T14:38:05;10.00;99.90
11221;DHT22;8517;53.546;10.104;2023-11-21T14:40:34;9.90;99.90
11221;DHT22;8517;53.546;10.104;2023-11-21T14:43:25;9.80;99.90
11221;DHT22;8517;53.546;10.104;2023-11-21T14:46:15;9.80;99.90
11221;DHT22;8517;53.546;10.104;2023-11-21T14:49:21;9.80;99.90
11221;DHT22;8517;53.546;10.104;2023-11-21T14:55:40;9.60;99.90
11221;DHT22;8517;53.546;10.104;2023-11-21T14:58:48;9.60;99.90
11221;DHT22;8517;53.546;10.104;2023-11-21T15:01:18;9.60;99.90
11221;DHT22;8517;53.546;10.104;2023-11-21T15:03:56;9.50;99.90
11221;DHT22;8517;53.546;10.104;2023-11-21T15:06:27;9.50;99.90
11221;DHT22;8517;53.546;10.104;2023-11-21T15:09:16;9.50;99.90
11221;DHT22;8517;53.546;10.104;2023-11-21T15:12:29;9.50;99.90
11221;DHT22;8517;53.546;10.104;2023-11-21T15:14:59;9.50;99.90
11221;DHT22;8517;53.546;10.104;2023-11-21T15:17:32;9.50;99.90
11221;DHT22;8517;53.546;10.104;2023-11-21T15:23:29;9.40;99.90
11221;DHT22;8517;53.546;10.104;2023-11-21T15:28:55;9.30;99.90
11221;DHT22;8517;53.546;10.104;2023-11-21T15:35:04;9.10;99.90
11221;DHT22;8517;53.546;10.104;2023-11-21T15:37:42;9.00;99.90
11221;DHT22;8517;53.546;10.104;2023-11-21T15:40:35;9.00;99.90
11221;DHT22;8517;53.546;10.104;2023-11-21T15:50:50;8.90;99.90
11221;DHT22;8517;53.546;10.104;2023-11-21T16:28:34;8.70;99.90
11221;DHT22;8517;53.546;10.104;2023-11-21T16:31:09;8.70;99.90
11221;DHT22;8517;53.546;10.104;2023-11-21T16:34:16;8.70;99.90
11221;DHT22;8517;53.546;10.104;2023-11-21T16:37:06;8.70;99.90
11221;DHT22;8517;53.546;10.104;2023-11-21T16:46:50;8.60;99.90
11221;DHT22;8517;53.546;10.104;2023-11-21T16:49:19;8.60;99.90
11221;DHT22;8517;53.546;10.104;2023-11-21T16:51:50;8.60;99.90
11221;DHT22;8517;53.546;10.104;2023-11-21T16:54:28;8.60;99.90
11221;DHT22;8517;53.546;10.104;2023-11-21T16:57:09;8.60;99.90
11221;DHT22;8517;53.546;10.104;2023-11-21T17:05:59;8.70;99.90
11221;DHT22;8517;53.546;10.104;2023-11-21T17:08:25;8.70;99.90
11221;DHT22;8517;53.546;10.104;2023-11-21T17:10:53;8.70;99.90
11221;DHT22;8517;53.546;10.104;2023-11-21T17:13:20;8.60;99.90
11221;DHT22;8517;53.546;10.104;2023-11-21T17:15:47;8.60;99.90
11221;DHT22;8517;53.546;10.104;2023-11-21T17:18:14;8.50;99.90
11221;DHT22;8517;53.546;10.104;2023-11-21T17:20:41;8.50;99.90
11221;DHT22;8517;53.546;10.104;2023-11-21T17:23:11;8.40;99.90
11221;DHT22;8517;53.546;10.104;2023-11-21T17:25:39;8.40;99.90
11221;DHT22;8517;53.546;10.104;2023-11-21T17:28:06;8.30;99.90
11221;DHT22;8517;53.546;10.104;2023-11-21T17:30:33;8.30;99.90
11221;DHT22;8517;53.546;10.104;2023-11-21T17:33:01;8.20;99.90
11221;DHT22;8517;53.546;10.104;2023-11-21T17:35:28;8.20;99.90
11221;DHT22;8517;53.546;10.104;2023-11-21T17:37:55;8.10;99.90